createdAt,value
2018-07-20T00:00:45.168Z,101249.19
2018-07-20T00:01:50.634Z,101250.41
2018-07-20T00:02:56.033Z,101251.24
2018-07-20T00:04:01.460Z,101250.95
2018-07-20T00:05:07.784Z,101254.91
2018-07-20T00:06:13.196Z,101252.25
2018-07-20T00:07:18.660Z,101251.64
2018-07-20T00:08:24.099Z,101255.97
2018-07-20T00:09:29.525Z,101242.84
2018-07-20T00:10:35.013Z,101245.67
2018-07-20T00:11:40.473Z,101241.38
2018-07-20T00:12:45.884Z,101241.92
2018-07-20T00:13:51.837Z,101234.66
2018-07-20T00:14:57.205Z,101243.60
2018-07-20T00:16:02.253Z,101243.34
2018-07-20T00:17:07.616Z,101238.95
2018-07-20T00:18:13.027Z,101232.89
2018-07-20T00:19:18.551Z,101240.24
2018-07-20T00:20:24.034Z,101240.24
2018-07-20T00:21:29.452Z,101235.95
2018-07-20T00:22:34.925Z,101236.34
2018-07-20T00:23:40.425Z,101240.75
2018-07-20T00:24:45.989Z,101233.89
2018-07-20T00:25:51.456Z,101235.40
2018-07-20T00:26:57.031Z,101230.20
2018-07-20T00:28:02.460Z,101229.45
2018-07-20T00:29:07.854Z,101224.42
2018-07-20T00:30:13.253Z,101217.55
2018-07-20T00:31:18.704Z,101218.01
2018-07-20T00:32:24.396Z,101213.72
2018-07-20T00:33:29.853Z,101214.46
2018-07-20T00:34:35.267Z,101216.36
2018-07-20T00:35:40.705Z,101216.67
2018-07-20T00:36:46.108Z,101217.11
2018-07-20T00:37:51.590Z,101216.64
2018-07-20T00:38:57.290Z,101215.50
2018-07-20T00:40:02.693Z,101215.50
2018-07-20T00:41:08.181Z,101213.84
2018-07-20T00:42:14.210Z,101213.24
2018-07-20T00:43:19.594Z,101217.50
2018-07-20T00:44:25.091Z,101213.67
2018-07-20T00:45:30.532Z,101212.78
2018-07-20T00:46:35.948Z,101211.55
2018-07-20T00:47:41.778Z,101205.89
2018-07-20T00:48:47.160Z,101208.12
2018-07-20T00:49:52.589Z,101206.13
2018-07-20T00:50:58.025Z,101208.73
2018-07-20T00:52:03.445Z,101205.73
2018-07-20T00:53:08.913Z,101201.45
2018-07-20T00:54:14.454Z,101202.68
2018-07-20T00:55:19.873Z,101201.84
2018-07-20T00:56:25.265Z,101201.45
2018-07-20T00:57:30.684Z,101200.45
2018-07-20T00:58:36.206Z,101196.13
2018-07-20T00:59:41.610Z,101196.27
2018-07-20T01:00:47.051Z,101192.44
2018-07-20T01:01:52.493Z,101190.67
2018-07-20T01:02:57.908Z,101193.53
2018-07-20T01:04:03.342Z,101191.14
2018-07-20T01:05:08.802Z,101184.86
2018-07-20T01:06:14.221Z,101185.30
2018-07-20T01:07:19.642Z,101185.89
2018-07-20T01:08:25.090Z,101185.42
2018-07-20T01:09:30.901Z,101180.23
2018-07-20T01:10:36.359Z,101186.78
2018-07-20T01:11:41.894Z,101186.42
2018-07-20T01:12:47.334Z,101181.41
2018-07-20T01:13:52.796Z,101182.66
2018-07-20T01:14:58.333Z,101181.80
2018-07-20T01:16:03.894Z,101182.20
2018-07-20T01:17:09.405Z,101177.75
2018-07-20T01:18:14.781Z,101178.28
2018-07-20T01:19:20.253Z,101175.53
2018-07-20T01:20:25.722Z,101173.59
2018-07-20T01:21:31.225Z,101169.97
2018-07-20T01:22:36.604Z,101170.11
2018-07-20T01:23:42.032Z,101167.28
2018-07-20T01:24:47.414Z,101169.48
2018-07-20T01:25:52.985Z,101167.72
2018-07-20T01:26:58.437Z,101167.31
2018-07-20T01:28:03.837Z,101167.19
2018-07-20T01:29:09.958Z,101169.44
2018-07-20T01:30:15.380Z,101169.44
2018-07-20T01:31:20.956Z,101167.22
2018-07-20T01:32:26.425Z,101167.35
2018-07-20T01:33:31.825Z,101167.88
2018-07-20T01:34:37.265Z,101167.35
2018-07-20T01:35:42.686Z,101166.52
2018-07-20T01:36:48.121Z,101167.95
2018-07-20T01:37:53.529Z,101163.76
2018-07-20T01:38:58.938Z,101166.41
2018-07-20T01:40:04.858Z,101167.78
2018-07-20T01:41:10.745Z,101165.59
2018-07-20T01:42:16.229Z,101164.48
2018-07-20T01:43:21.725Z,101166.38
2018-07-20T01:44:27.138Z,101171.66
2018-07-20T01:45:32.558Z,101169.95
2018-07-20T01:46:38.228Z,101172.85
2018-07-20T01:47:43.662Z,101170.66
2018-07-20T01:48:49.032Z,101171.66
2018-07-20T01:49:54.473Z,101169.72
2018-07-20T01:50:59.874Z,101172.31
2018-07-20T01:52:05.297Z,101164.97
2018-07-20T01:53:10.760Z,101170.25
2018-07-20T01:54:16.205Z,101169.45
2018-07-20T01:55:21.433Z,101164.86
2018-07-20T01:56:27.059Z,101163.66
2018-07-20T01:57:32.450Z,101161.50
2018-07-20T01:58:37.956Z,101161.08
2018-07-20T01:59:43.325Z,101163.39
2018-07-20T02:00:48.736Z,101163.39
2018-07-20T02:01:54.228Z,101166.84
2018-07-20T02:02:59.641Z,101161.67
2018-07-20T02:04:05.141Z,101161.39
2018-07-20T02:05:10.573Z,101160.96
2018-07-20T02:06:16.026Z,101169.27
2018-07-20T02:07:21.465Z,101160.78
2018-07-20T02:08:27.259Z,101164.20
2018-07-20T02:09:32.772Z,101162.67
2018-07-20T02:10:38.176Z,101162.98
2018-07-20T02:11:43.622Z,101166.16
2018-07-20T02:12:49.004Z,101164.46
2018-07-20T02:13:54.504Z,101158.78
2018-07-20T02:15:00.229Z,101160.38
2018-07-20T02:16:05.669Z,101163.74
2018-07-20T02:17:11.800Z,101157.62
2018-07-20T02:18:17.286Z,101164.28
2018-07-20T02:19:22.868Z,101158.86
2018-07-20T02:20:28.307Z,101161.91
2018-07-20T02:21:33.786Z,101161.33
2018-07-20T02:22:39.136Z,101155.47
2018-07-20T02:23:44.545Z,101165.83
2018-07-20T02:24:50.012Z,101158.18
2018-07-20T02:25:55.396Z,101155.06
2018-07-20T02:27:00.551Z,101152.94
2018-07-20T02:28:05.950Z,101153.93
2018-07-20T02:29:11.357Z,101155.13
2018-07-20T02:30:16.821Z,101153.75
2018-07-20T02:31:22.239Z,101160.00
2018-07-20T02:32:27.629Z,101157.35
2018-07-20T02:33:33.054Z,101160.13
2018-07-20T02:34:38.531Z,101161.88
2018-07-20T02:35:43.979Z,101158.92
2018-07-20T02:36:49.356Z,101153.81
2018-07-20T02:37:54.785Z,101148.56
2018-07-20T02:39:00.216Z,101155.23
2018-07-20T02:40:05.948Z,101149.65
2018-07-20T02:41:11.385Z,101159.81
2018-07-20T02:42:16.852Z,101155.10
2018-07-20T02:43:22.334Z,101157.69
2018-07-20T02:44:27.751Z,101156.52
2018-07-20T02:45:33.594Z,101150.98
2018-07-20T02:46:39.360Z,101152.33
2018-07-20T02:47:44.456Z,101157.16
2018-07-20T02:48:50.698Z,101151.74
2018-07-20T02:49:56.130Z,101152.20
2018-07-20T02:51:01.889Z,101151.89
2018-07-20T02:52:07.478Z,101150.02
2018-07-20T02:53:12.867Z,101155.25
2018-07-20T02:54:18.300Z,101147.09
2018-07-20T02:55:23.800Z,101151.55
2018-07-20T02:56:29.592Z,101150.78
2018-07-20T02:57:34.971Z,101147.23
2018-07-20T02:58:40.359Z,101148.13
2018-07-20T02:59:45.849Z,101143.41
2018-07-20T03:00:51.394Z,101146.46
2018-07-20T03:01:56.788Z,101148.13
2018-07-20T03:03:02.270Z,101141.28
2018-07-20T03:04:08.213Z,101147.04
2018-07-20T03:05:13.672Z,101149.28
2018-07-20T03:06:19.290Z,101146.12
2018-07-20T03:07:24.706Z,101145.53
2018-07-20T03:08:30.117Z,101144.05
2018-07-20T03:09:35.502Z,101142.05
2018-07-20T03:10:40.981Z,101143.45
2018-07-20T03:11:46.093Z,101141.80
2018-07-20T03:12:51.100Z,101140.87
2018-07-20T03:13:56.722Z,101139.77
2018-07-20T03:15:02.120Z,101138.36
2018-07-20T03:16:07.613Z,101138.81
2018-07-20T03:17:13.604Z,101138.87
2018-07-20T03:18:19.034Z,101138.87
2018-07-20T03:19:24.515Z,101145.80
2018-07-20T03:20:30.002Z,101138.81
2018-07-20T03:21:35.416Z,101143.99
2018-07-20T03:22:40.861Z,101142.64
2018-07-20T03:23:46.277Z,101141.72
2018-07-20T03:24:51.717Z,101137.52
2018-07-20T03:25:57.148Z,101136.29
2018-07-20T03:27:02.928Z,101135.00
2018-07-20T03:28:08.427Z,101135.58
2018-07-20T03:29:13.846Z,101136.75
2018-07-20T03:30:19.266Z,101138.87
2018-07-20T03:31:24.679Z,101133.77
2018-07-20T03:32:30.108Z,101135.58
2018-07-20T03:33:35.570Z,101133.69
2018-07-20T03:34:41.080Z,101128.92
2018-07-20T03:35:46.549Z,101131.48
2018-07-20T03:36:51.995Z,101127.23
2018-07-20T03:37:57.836Z,101135.71
2018-07-20T03:39:03.284Z,101130.72
2018-07-20T03:40:08.789Z,101131.55
2018-07-20T03:41:14.239Z,101126.72
2018-07-20T03:42:19.694Z,101128.91
2018-07-20T03:43:25.145Z,101132.01
2018-07-20T03:44:30.553Z,101130.34
2018-07-20T03:45:36.030Z,101135.83
2018-07-20T03:46:41.476Z,101124.83
2018-07-20T03:47:46.959Z,101126.58
2018-07-20T03:48:52.517Z,101127.05
2018-07-20T03:49:57.932Z,101126.70
2018-07-20T03:51:03.370Z,101130.12
2018-07-20T03:52:09.215Z,101128.83
2018-07-20T03:53:14.596Z,101124.05
2018-07-20T03:54:20.009Z,101121.84
2018-07-20T03:55:25.454Z,101118.43
2018-07-20T03:56:30.845Z,101125.21
2018-07-20T03:57:36.375Z,101127.02
2018-07-20T03:58:41.769Z,101126.39
2018-07-20T03:59:47.156Z,101122.56
2018-07-20T04:00:52.772Z,101122.94
2018-07-20T04:01:58.220Z,101120.09
2018-07-20T04:03:03.705Z,101118.69
2018-07-20T04:04:09.121Z,101116.05
2018-07-20T04:05:14.551Z,101120.30
2018-07-20T04:06:19.960Z,101121.27
2018-07-20T04:07:25.453Z,101118.22
2018-07-20T04:08:30.862Z,101124.88
2018-07-20T04:09:36.249Z,101114.03
2018-07-20T04:10:41.732Z,101118.74
2018-07-20T04:11:47.115Z,101117.39
2018-07-20T04:12:53.288Z,101115.98
2018-07-20T04:13:58.669Z,101109.77
2018-07-20T04:15:04.187Z,101114.48
2018-07-20T04:16:09.569Z,101118.05
2018-07-20T04:17:15.046Z,101117.84
2018-07-20T04:18:20.524Z,101107.13
2018-07-20T04:19:25.948Z,101114.62
2018-07-20T04:20:31.377Z,101117.03
2018-07-20T04:21:36.872Z,101118.63
2018-07-20T04:22:42.398Z,101124.14
2018-07-20T04:23:47.873Z,101118.36
2018-07-20T04:24:53.309Z,101119.72
2018-07-20T04:25:58.760Z,101121.61
2018-07-20T04:27:04.194Z,101122.84
2018-07-20T04:28:10.108Z,101117.91
2018-07-20T04:29:15.538Z,101121.20
2018-07-20T04:30:20.967Z,101120.63
2018-07-20T04:31:26.580Z,101120.63
2018-07-20T04:32:31.995Z,101118.68
2018-07-20T04:33:37.388Z,101116.92
2018-07-20T04:34:42.793Z,101117.63
2018-07-20T04:35:48.209Z,101108.63
2018-07-20T04:36:53.668Z,101115.38
2018-07-20T04:37:59.080Z,101110.27
2018-07-20T04:39:07.044Z,101109.62
2018-07-20T04:40:12.468Z,101103.45
2018-07-20T04:41:17.899Z,101106.68
2018-07-20T04:42:23.692Z,101105.32
2018-07-20T04:43:29.102Z,101109.14
2018-07-20T04:44:34.480Z,101104.14
2018-07-20T04:45:39.882Z,101107.53
2018-07-20T04:46:45.330Z,101106.27
2018-07-20T04:47:50.818Z,101109.13
2018-07-20T04:48:56.239Z,101107.11
2018-07-20T04:50:01.696Z,101113.83
2018-07-20T04:51:07.543Z,101110.77
2018-07-20T04:52:12.952Z,101109.75
2018-07-20T04:53:18.440Z,101107.39
2018-07-20T04:54:23.834Z,101108.39
2018-07-20T04:55:29.256Z,101103.21
2018-07-20T04:56:34.711Z,101107.09
2018-07-20T04:57:40.116Z,101104.41
2018-07-20T04:58:46.004Z,101107.09
2018-07-20T04:59:51.095Z,101102.21
2018-07-20T05:00:56.452Z,101107.33
2018-07-20T05:02:01.881Z,101111.52
2018-07-20T05:03:07.929Z,101108.86
2018-07-20T05:04:13.372Z,101108.46
2018-07-20T05:05:19.115Z,101113.58
2018-07-20T05:06:24.521Z,101115.47
2018-07-20T05:07:29.952Z,101115.16
2018-07-20T05:08:35.382Z,101107.59
2018-07-20T05:09:40.949Z,101114.06
2018-07-20T05:10:46.358Z,101110.34
2018-07-20T05:11:51.806Z,101109.83
2018-07-20T05:12:57.211Z,101104.34
2018-07-20T05:14:02.640Z,101107.89
2018-07-20T05:15:08.178Z,101105.03
2018-07-20T05:16:13.585Z,101109.75
2018-07-20T05:17:19.129Z,101109.13
2018-07-20T05:18:24.572Z,101109.66
2018-07-20T05:19:29.966Z,101108.52
2018-07-20T05:20:35.392Z,101109.75
2018-07-20T05:21:40.848Z,101110.42
2018-07-20T05:22:46.296Z,101114.05
2018-07-20T05:23:51.739Z,101119.66
2018-07-20T05:24:57.196Z,101114.05
2018-07-20T05:26:02.658Z,101107.77
2018-07-20T05:27:08.068Z,101107.96
2018-07-20T05:28:13.624Z,101108.88
2018-07-20T05:29:19.073Z,101114.75
2018-07-20T05:30:24.528Z,101105.48
2018-07-20T05:31:30.031Z,101104.28
2018-07-20T05:32:35.494Z,101105.75
2018-07-20T05:33:40.917Z,101112.16
2018-07-20T05:34:46.496Z,101106.12
2018-07-20T05:35:51.996Z,101111.05
2018-07-20T05:36:57.449Z,101106.69
2018-07-20T05:38:03.012Z,101108.29
2018-07-20T05:39:10.420Z,101107.52
2018-07-20T05:40:15.942Z,101105.63
2018-07-20T05:41:21.958Z,101107.56
2018-07-20T05:42:27.397Z,101099.59
2018-07-20T05:43:32.764Z,101103.02
2018-07-20T05:44:38.185Z,101106.08
2018-07-20T05:45:43.592Z,101103.31
2018-07-20T05:46:49.028Z,101100.98
2018-07-20T05:47:54.749Z,101105.64
2018-07-20T05:49:00.173Z,101098.23
2018-07-20T05:50:07.769Z,101105.77
2018-07-20T05:51:13.401Z,101099.59
2018-07-20T05:52:18.593Z,101103.28
2018-07-20T05:53:23.912Z,101103.75
2018-07-20T05:54:29.335Z,101099.33
2018-07-20T05:55:34.756Z,101105.21
2018-07-20T05:56:40.193Z,101103.78
2018-07-20T05:57:45.919Z,101106.60
2018-07-20T05:58:51.360Z,101104.52
2018-07-20T05:59:56.753Z,101107.03
2018-07-20T06:01:02.188Z,101097.83
2018-07-20T06:02:07.640Z,101099.45
2018-07-20T06:03:13.120Z,101095.87
2018-07-20T06:04:19.036Z,101099.22
2018-07-20T06:05:24.479Z,101099.31
2018-07-20T06:06:29.937Z,101101.91
2018-07-20T06:07:35.387Z,101096.19
2018-07-20T06:08:40.846Z,101097.50
2018-07-20T06:09:46.380Z,101097.43
2018-07-20T06:10:51.861Z,101089.52
2018-07-20T06:11:57.298Z,101094.42
2018-07-20T06:13:02.802Z,101092.91
2018-07-20T06:14:08.780Z,101091.69
2018-07-20T06:15:14.220Z,101094.36
2018-07-20T06:16:19.795Z,101087.19
2018-07-20T06:17:25.237Z,101087.55
2018-07-20T06:18:30.677Z,101090.47
2018-07-20T06:19:36.126Z,101091.08
2018-07-20T06:20:41.568Z,101086.51
2018-07-20T06:21:47.557Z,101094.98
2018-07-20T06:22:53.025Z,101092.97
2018-07-20T06:23:58.528Z,101096.11
2018-07-20T06:25:04.012Z,101090.92
2018-07-20T06:26:09.491Z,101091.21
2018-07-20T06:27:14.979Z,101094.35
2018-07-20T06:28:20.534Z,101089.84
2018-07-20T06:29:25.986Z,101087.78
2018-07-20T06:30:31.462Z,101095.86
2018-07-20T06:31:36.972Z,101093.27
2018-07-20T06:32:42.448Z,101097.83
2018-07-20T06:33:48.140Z,101088.27
2018-07-20T06:34:53.628Z,101091.92
2018-07-20T06:35:59.145Z,101090.53
2018-07-20T06:37:04.565Z,101090.50
2018-07-20T06:38:10.136Z,101090.02
2018-07-20T06:39:15.576Z,101096.92
2018-07-20T06:40:21.012Z,101088.73
2018-07-20T06:41:26.452Z,101088.41
2018-07-20T06:42:31.951Z,101093.92
2018-07-20T06:43:37.461Z,101095.27
2018-07-20T06:44:42.953Z,101095.95
2018-07-20T06:45:48.376Z,101098.31
2018-07-20T06:46:53.796Z,101096.85
2018-07-20T06:47:59.329Z,101097.72
2018-07-20T06:49:04.970Z,101098.52
2018-07-20T06:50:17.451Z,101099.06
2018-07-20T06:51:22.848Z,101094.53
2018-07-20T06:52:28.342Z,101092.88
2018-07-20T06:53:33.824Z,101099.11
2018-07-20T06:54:39.277Z,101096.41
2018-07-20T06:55:44.743Z,101095.15
2018-07-20T06:56:50.102Z,101094.63
2018-07-20T06:57:55.510Z,101090.94
2018-07-20T06:59:01.356Z,101099.19
2018-07-20T07:00:07.540Z,101092.88
2018-07-20T07:01:12.961Z,101088.33
2018-07-20T07:02:18.393Z,101092.15
2018-07-20T07:03:23.834Z,101094.94
2018-07-20T07:04:29.307Z,101088.60
2018-07-20T07:05:34.773Z,101086.74
2018-07-20T07:06:40.217Z,101089.36
2018-07-20T07:07:45.756Z,101085.68
2018-07-20T07:08:51.309Z,101082.88
2018-07-20T07:09:56.809Z,101082.70
2018-07-20T07:11:02.289Z,101082.70
2018-07-20T07:12:07.824Z,101087.34
2018-07-20T07:13:13.292Z,101085.40
2018-07-20T07:14:18.775Z,101086.84
2018-07-20T07:15:24.206Z,101079.11
2018-07-20T07:16:29.637Z,101085.84
2018-07-20T07:17:35.072Z,101087.69
2018-07-20T07:18:40.509Z,101083.43
2018-07-20T07:19:46.069Z,101081.73
2018-07-20T07:20:51.506Z,101082.47
2018-07-20T07:21:56.889Z,101079.22
2018-07-20T07:23:02.298Z,101076.34
2018-07-20T07:24:08.433Z,101078.04
2018-07-20T07:25:13.847Z,101076.17
2018-07-20T07:26:19.292Z,101076.62
2018-07-20T07:27:24.756Z,101074.40
2018-07-20T07:28:30.209Z,101075.31
2018-07-20T07:29:35.633Z,101077.66
2018-07-20T07:30:41.525Z,101080.08
2018-07-20T07:31:46.999Z,101073.17
2018-07-20T07:32:52.429Z,101077.73
2018-07-20T07:33:57.837Z,101074.95
2018-07-20T07:35:03.285Z,101079.03
2018-07-20T07:36:08.794Z,101083.50
2018-07-20T07:37:14.263Z,101081.73
2018-07-20T07:38:19.700Z,101076.52
2018-07-20T07:39:25.101Z,101076.90
2018-07-20T07:40:30.540Z,101072.77
2018-07-20T07:41:36.044Z,101072.24
2018-07-20T07:42:41.648Z,101076.23
2018-07-20T07:43:47.075Z,101080.04
2018-07-20T07:44:52.672Z,101083.49
2018-07-20T07:45:58.145Z,101079.00
2018-07-20T07:47:03.716Z,101073.56
2018-07-20T07:48:09.112Z,101078.41
2018-07-20T07:49:14.571Z,101073.64
2018-07-20T07:50:19.961Z,101080.61
2018-07-20T07:51:25.724Z,101074.47
2018-07-20T07:52:31.236Z,101072.69
2018-07-20T07:53:36.732Z,101069.52
2018-07-20T07:54:42.152Z,101073.63
2018-07-20T07:55:47.612Z,101065.77
2018-07-20T07:56:53.057Z,101070.67
2018-07-20T07:57:58.526Z,101067.97
2018-07-20T07:59:04.057Z,101071.97
2018-07-20T08:00:09.584Z,101071.88
2018-07-20T08:01:15.017Z,101066.72
2018-07-20T08:02:20.778Z,101070.52
2018-07-20T08:03:26.301Z,101072.23
2018-07-20T08:04:31.731Z,101070.73
2018-07-20T08:05:37.617Z,101074.55
2018-07-20T08:06:43.032Z,101073.63
2018-07-20T08:07:48.479Z,101070.97
2018-07-20T08:08:53.896Z,101065.62
2018-07-20T08:09:59.531Z,101076.64
2018-07-20T08:11:04.876Z,101077.31
2018-07-20T08:12:10.302Z,101074.41
2018-07-20T08:13:15.729Z,101071.66
2018-07-20T08:14:21.180Z,101072.11
2018-07-20T08:15:26.603Z,101070.31
2018-07-20T08:16:32.081Z,101072.88
2018-07-20T08:17:37.480Z,101070.21
2018-07-20T08:18:42.909Z,101070.16
2018-07-20T08:19:48.474Z,101063.95
2018-07-20T08:20:53.904Z,101071.47
2018-07-20T08:21:59.429Z,101063.80
2018-07-20T08:23:04.918Z,101066.05
2018-07-20T08:24:10.377Z,101068.59
2018-07-20T08:25:16.193Z,101064.52
2018-07-20T08:26:21.657Z,101066.63
2018-07-20T08:27:27.041Z,101066.66
2018-07-20T08:28:32.937Z,101064.75
2018-07-20T08:29:38.403Z,101067.86
2018-07-20T08:30:43.850Z,101066.14
2018-07-20T08:31:49.305Z,101064.80
2018-07-20T08:32:54.801Z,101068.03
2018-07-20T08:34:00.226Z,101064.73
2018-07-20T08:35:05.976Z,101066.44
2018-07-20T08:36:11.400Z,101067.75
2018-07-20T08:37:16.943Z,101077.36
2018-07-20T08:38:22.353Z,101068.65
2018-07-20T08:39:27.789Z,101064.73
2018-07-20T08:40:33.214Z,101067.13
2018-07-20T08:41:39.008Z,101061.39
2018-07-20T08:42:44.456Z,101065.13
2018-07-20T08:43:49.595Z,101063.20
2018-07-20T08:44:55.002Z,101069.15
2018-07-20T08:46:00.413Z,101064.26
2018-07-20T08:47:06.101Z,101067.38
2018-07-20T08:48:11.517Z,101068.66
2018-07-20T08:49:17.396Z,101062.92
2018-07-20T08:50:23.817Z,101061.83
2018-07-20T08:51:29.288Z,101057.00
2018-07-20T08:52:34.876Z,101061.05
2018-07-20T08:53:40.272Z,101058.13
2018-07-20T08:54:45.729Z,101056.91
2018-07-20T08:55:51.258Z,101060.50
2018-07-20T08:56:56.701Z,101064.16
2018-07-20T08:58:02.162Z,101063.81
2018-07-20T08:59:07.887Z,101060.84
2018-07-20T09:00:13.232Z,101060.04
2018-07-20T09:01:19.283Z,101059.58
2018-07-20T09:02:24.859Z,101057.95
2018-07-20T09:03:30.329Z,101054.98
2018-07-20T09:04:35.459Z,101062.03
2018-07-20T09:05:40.844Z,101066.33
2018-07-20T09:06:46.293Z,101061.31
2018-07-20T09:07:51.741Z,101061.20
2018-07-20T09:08:57.153Z,101061.11
2018-07-20T09:10:02.839Z,101061.50
2018-07-20T09:11:08.238Z,101058.64
2018-07-20T09:12:13.655Z,101061.64
2018-07-20T09:13:19.122Z,101057.63
2018-07-20T09:14:24.597Z,101060.66
2018-07-20T09:15:30.033Z,101059.69
2018-07-20T09:16:35.464Z,101057.22
2018-07-20T09:17:40.917Z,101059.95
2018-07-20T09:18:46.468Z,101059.14
2018-07-20T09:19:51.962Z,101047.09
2018-07-20T09:20:57.389Z,101051.52
2018-07-20T09:22:03.480Z,101053.44
2018-07-20T09:23:08.966Z,101047.14
2018-07-20T09:24:14.430Z,101042.50
2018-07-20T09:25:19.838Z,101051.80
2018-07-20T09:26:25.676Z,101044.27
2018-07-20T09:27:31.142Z,101044.41
2018-07-20T09:28:36.529Z,101044.75
2018-07-20T09:29:41.998Z,101043.58
2018-07-20T09:30:47.404Z,101041.09
2018-07-20T09:31:53.018Z,101037.42
2018-07-20T09:32:58.456Z,101038.47
2018-07-20T09:34:03.932Z,101034.65
2018-07-20T09:35:09.379Z,101038.23
2018-07-20T09:36:14.812Z,101036.69
2018-07-20T09:37:21.342Z,101032.86
2018-07-20T09:38:26.746Z,101039.52
2018-07-20T09:39:32.136Z,101034.98
2018-07-20T09:40:37.249Z,101037.16
2018-07-20T09:41:42.605Z,101037.16
2018-07-20T09:42:48.133Z,101030.47
2018-07-20T09:43:53.869Z,101035.48
2018-07-20T09:44:59.351Z,101036.32
2018-07-20T09:46:04.838Z,101031.52
2018-07-20T09:47:10.241Z,101036.77
2018-07-20T09:48:15.728Z,101033.53
2018-07-20T09:49:21.193Z,101035.30
2018-07-20T09:50:26.653Z,101035.31
2018-07-20T09:51:32.050Z,101036.48
2018-07-20T09:52:37.482Z,101033.27
2018-07-20T09:53:42.880Z,101034.00
2018-07-20T09:54:48.363Z,101030.38
2018-07-20T09:55:54.132Z,101026.24
2018-07-20T09:56:59.554Z,101025.61
2018-07-20T09:58:05.039Z,101026.90
2018-07-20T09:59:10.498Z,101027.17
2018-07-20T10:00:51.903Z,101022.75
2018-07-20T10:01:57.448Z,101018.81
2018-07-20T10:03:02.957Z,101021.06
2018-07-20T10:04:08.528Z,101020.97
2018-07-20T10:05:13.948Z,101017.13
2018-07-20T10:06:19.489Z,101015.36
2018-07-20T10:07:24.973Z,101015.94
2018-07-20T10:08:30.422Z,101022.36
2018-07-20T10:09:35.868Z,101018.49
2018-07-20T10:10:41.291Z,101019.13
2018-07-20T10:11:46.801Z,101016.84
2018-07-20T10:12:52.192Z,101021.23
2018-07-20T10:13:57.682Z,101016.06
2018-07-20T10:15:03.193Z,101011.47
2018-07-20T10:16:08.699Z,101010.89
2018-07-20T10:17:14.219Z,101012.48
2018-07-20T10:18:19.703Z,101015.10
2018-07-20T10:19:24.763Z,101018.09
2018-07-20T10:20:30.173Z,101013.17
2018-07-20T10:21:35.634Z,101011.86
2018-07-20T10:22:41.065Z,101009.27
2018-07-20T10:23:46.478Z,101006.69
2018-07-20T10:24:51.913Z,101009.40
2018-07-20T10:25:57.336Z,101003.63
2018-07-20T10:27:02.776Z,101011.77
2018-07-20T10:28:08.201Z,101002.23
2018-07-20T10:29:13.625Z,101009.40
2018-07-20T10:30:19.081Z,100996.41
2018-07-20T10:31:24.593Z,101002.08
2018-07-20T10:32:30.758Z,101000.23
2018-07-20T10:33:36.377Z,101004.16
2018-07-20T10:34:41.817Z,101013.84
2018-07-20T10:35:47.192Z,101012.34
2018-07-20T10:36:52.583Z,101002.70
2018-07-20T10:37:58.133Z,101004.08
2018-07-20T10:39:03.778Z,101003.77
2018-07-20T10:40:09.222Z,101001.50
2018-07-20T10:41:14.680Z,100996.83
2018-07-20T10:42:20.578Z,101000.63
2018-07-20T10:43:26.038Z,101000.88
2018-07-20T10:44:32.369Z,101003.31
2018-07-20T10:45:38.334Z,101001.73
2018-07-20T10:46:43.769Z,100999.95
2018-07-20T10:47:49.191Z,101009.41
2018-07-20T10:48:54.658Z,100999.70
2018-07-20T10:50:00.081Z,101002.08
2018-07-20T10:51:05.914Z,101003.89
2018-07-20T10:52:11.377Z,101008.73
2018-07-20T10:53:16.752Z,101005.20
2018-07-20T10:54:22.200Z,100999.75
2018-07-20T10:55:27.680Z,101003.02
2018-07-20T10:56:33.156Z,101007.66
2018-07-20T10:57:38.585Z,101001.77
2018-07-20T10:58:43.675Z,101003.49
2018-07-20T10:59:49.605Z,101000.52
2018-07-20T11:00:56.409Z,101007.03
2018-07-20T11:02:01.825Z,101007.92
2018-07-20T11:03:07.217Z,101013.08
2018-07-20T11:04:12.618Z,101007.17
2018-07-20T11:05:18.216Z,101007.45
2018-07-20T11:06:23.680Z,101007.58
2018-07-20T11:07:29.226Z,101000.20
2018-07-20T11:08:34.748Z,101002.15
2018-07-20T11:09:40.188Z,100997.25
2018-07-20T11:10:45.712Z,100993.88
2018-07-20T11:11:51.160Z,100995.39
2018-07-20T11:12:56.757Z,100992.89
2018-07-20T11:14:02.166Z,100988.45
2018-07-20T11:15:07.676Z,100991.45
2018-07-20T11:16:13.106Z,100992.75
2018-07-20T11:17:18.537Z,100986.64
2018-07-20T11:18:23.964Z,100986.37
2018-07-20T11:19:29.409Z,100986.79
2018-07-20T11:20:34.900Z,100986.84
2018-07-20T11:21:40.301Z,100974.94
2018-07-20T11:22:45.769Z,100977.91
2018-07-20T11:23:51.257Z,100978.14
2018-07-20T11:24:56.660Z,100976.59
2018-07-20T11:26:02.168Z,100974.68
2018-07-20T11:27:07.645Z,100972.42
2018-07-20T11:28:13.045Z,100974.27
2018-07-20T11:29:18.589Z,100970.58
2018-07-20T11:30:24.034Z,100971.06
2018-07-20T11:31:29.455Z,100970.52
2018-07-20T11:32:34.882Z,100978.28
2018-07-20T11:33:40.301Z,100970.52
2018-07-20T11:34:45.739Z,100973.02
2018-07-20T11:35:51.178Z,100969.56
2018-07-20T11:36:57.072Z,100975.80
2018-07-20T11:38:02.680Z,100973.70
2018-07-20T11:39:10.162Z,100966.96
2018-07-20T11:40:15.596Z,100975.06
2018-07-20T11:41:21.940Z,100972.45
2018-07-20T11:42:27.440Z,100972.59
2018-07-20T11:43:33.248Z,100969.22
2018-07-20T11:44:38.640Z,100970.39
2018-07-20T11:45:44.057Z,100970.67
2018-07-20T11:46:49.529Z,100967.28
2018-07-20T11:47:54.901Z,100969.78
2018-07-20T11:49:00.771Z,100961.76
2018-07-20T11:50:06.478Z,100960.41
2018-07-20T11:51:11.873Z,100961.25
2018-07-20T11:52:18.074Z,100955.58
2018-07-20T11:53:23.498Z,100955.08
2018-07-20T11:54:28.944Z,100953.19
2018-07-20T11:55:34.417Z,100951.41
2018-07-20T11:56:39.894Z,100948.77
2018-07-20T11:57:45.313Z,100950.02
2018-07-20T11:58:51.232Z,100947.17
2018-07-20T11:59:56.725Z,100946.48
2018-07-20T12:01:02.215Z,100939.82
2018-07-20T12:02:08.099Z,100940.31
2018-07-20T12:03:13.548Z,100937.59
2018-07-20T12:04:19.066Z,100932.99
2018-07-20T12:05:24.480Z,100934.49
2018-07-20T12:06:30.389Z,100932.48
2018-07-20T12:07:35.781Z,100933.24
2018-07-20T12:08:41.253Z,100929.84
2018-07-20T12:09:47.021Z,100931.80
2018-07-20T12:10:52.419Z,100926.81
2018-07-20T12:11:58.750Z,100927.58
2018-07-20T12:13:04.520Z,100934.06
2018-07-20T12:14:10.097Z,100929.98
2018-07-20T12:15:15.529Z,100928.27
2018-07-20T12:16:20.961Z,100933.58
2018-07-20T12:17:26.376Z,100925.94
2018-07-20T12:18:31.870Z,100925.01
2018-07-20T12:19:37.269Z,100918.48
2018-07-20T12:20:42.669Z,100924.03
2018-07-20T12:21:48.109Z,100921.77
2018-07-20T12:22:53.620Z,100921.00
2018-07-20T12:23:59.116Z,100921.67
2018-07-20T12:25:04.577Z,100918.73
2018-07-20T12:26:10.060Z,100915.34
2018-07-20T12:27:15.163Z,100920.16
2018-07-20T12:28:20.413Z,100916.69